NKS9985 KFLL-KGYR
Flight info
| Callsign | NKS9985 |
|---|---|
| Flight time | 4h 51m |
| Altitude | 34000 |
| Route | BNICE2 DOLIE CIGAR Y290 LEV IAH JCT ELP J50 ALIBY J2 TUS SUNSS8 |
| Aircraft | A321/M-SDE3FGHIRWY/LB1 |
Departure
| Time | 2026-05-06 23:55 |
|---|---|
| Airport | Fort Lauderdale Hollywood International Airport (KFLL) |
Arrival
| Time | 2026-05-07 04:46 |
|---|---|
| Airport | Phoenix Goodyear Airport (KGYR) |
| Time | Latitude | Longitude | Altitude | Speed | Heading |
|---|---|---|---|---|---|
| 2026-05-06 23:34 | 26.07918 | -80.14822 | 17 ft | 0 kts | 110° |
| 2026-05-06 23:49 | 26.07917 | -80.14818 | 16 ft | 2 kts | 110° |
| 2026-05-06 23:49 | 26.07910 | -80.14797 | 16 ft | 4 kts | 110° |
| 2026-05-06 23:49 | 26.07896 | -80.14756 | 16 ft | 7 kts | 110° |
| 2026-05-06 23:50 | 26.07871 | -80.14721 | 16 ft | 0 kts | 146° |
| 2026-05-06 23:50 | 26.07820 | -80.14724 | 17 ft | 8 kts | 223° |
| 2026-05-06 23:50 | 26.07808 | -80.14822 | 17 ft | 17 kts | 270° |
| 2026-05-06 23:51 | 26.07809 | -80.14966 | 17 ft | 20 kts | 271° |
| 2026-05-06 23:51 | 26.07810 | -80.15123 | 16 ft | 19 kts | 271° |
| 2026-05-06 23:51 | 26.07811 | -80.15269 | 16 ft | 19 kts | 270° |
| 2026-05-06 23:51 | 26.07811 | -80.15420 | 16 ft | 20 kts | 270° |
| 2026-05-06 23:52 | 26.07811 | -80.15583 | 16 ft | 22 kts | 270° |
| 2026-05-06 23:52 | 26.07814 | -80.15762 | 16 ft | 24 kts | 272° |
| 2026-05-06 23:52 | 26.07816 | -80.15955 | 17 ft | 26 kts | 269° |
| 2026-05-06 23:52 | 26.07815 | -80.16159 | 17 ft | 27 kts | 271° |
| 2026-05-06 23:53 | 26.07811 | -80.16364 | 17 ft | 27 kts | 266° |
| 2026-05-06 23:53 | 26.07803 | -80.16546 | 17 ft | 19 kts | 270° |
| 2026-05-06 23:53 | 26.07803 | -80.16598 | 17 ft | 1 kts | 266° |
| 2026-05-06 23:53 | 26.07779 | -80.16635 | 17 ft | 14 kts | 207° |
| 2026-05-06 23:54 | 26.07694 | -80.16612 | 18 ft | 11 kts | 92° |
| 2026-05-06 23:54 | 26.07694 | -80.16544 | 19 ft | 19 kts | 90° |
| 2026-05-06 23:54 | 26.07692 | -80.15990 | 19 ft | 120 kts | 90° |
| 2026-05-06 23:54 | 26.07691 | -80.14823 | 463 ft | 161 kts | 91° |
| 2026-05-06 23:55 | 26.07725 | -80.13569 | 1569 ft | 159 kts | 89° |
| 2026-05-06 23:55 | 26.07766 | -80.12269 | 1909 ft | 179 kts | 88° |
| 2026-05-06 23:55 | 26.07836 | -80.10800 | 2161 ft | 202 kts | 83° |
| 2026-05-06 23:55 | 26.08304 | -80.09212 | 2447 ft | 233 kts | 64° |
| 2026-05-06 23:56 | 26.09283 | -80.07646 | 2870 ft | 259 kts | 47° |
| 2026-05-06 23:56 | 26.10745 | -80.06424 | 3644 ft | 267 kts | 26° |
| 2026-05-06 23:56 | 26.12528 | -80.05689 | 4398 ft | 275 kts | 17° |
| 2026-05-06 23:56 | 26.14340 | -80.05109 | 5528 ft | 270 kts | 9° |
| 2026-05-06 23:57 | 26.16215 | -80.05047 | 6460 ft | 272 kts | 353° |
| 2026-05-06 23:57 | 26.18047 | -80.05550 | 7296 ft | 274 kts | 341° |
| 2026-05-06 23:57 | 26.19859 | -80.06276 | 8114 ft | 279 kts | 340° |
| 2026-05-06 23:57 | 26.21547 | -80.07370 | 8895 ft | 285 kts | 322° |
| 2026-05-06 23:58 | 26.22878 | -80.09008 | 9649 ft | 294 kts | 305° |
| 2026-05-06 23:58 | 26.23777 | -80.11095 | 10275 ft | 307 kts | 294° |
| 2026-05-06 23:58 | 26.24600 | -80.13379 | 10494 ft | 330 kts | 294° |
| 2026-05-06 23:58 | 26.25407 | -80.15882 | 10672 ft | 355 kts | 287° |
| 2026-05-06 23:59 | 26.25858 | -80.18650 | 11025 ft | 370 kts | 280° |
| 2026-05-06 23:59 | 26.26239 | -80.21507 | 11632 ft | 375 kts | 281° |
| 2026-05-06 23:59 | 26.26641 | -80.24393 | 12285 ft | 378 kts | 281° |
| 2026-05-06 23:59 | 26.27056 | -80.27300 | 12971 ft | 381 kts | 282° |
| 2026-05-07 00:00 | 26.27480 | -80.30225 | 13635 ft | 385 kts | 282° |
| 2026-05-07 00:00 | 26.27910 | -80.33186 | 14255 ft | 388 kts | 282° |
| 2026-05-07 00:00 | 26.28340 | -80.36168 | 14871 ft | 390 kts | 282° |
| 2026-05-07 00:00 | 26.28624 | -80.38151 | 15292 ft | 391 kts | 281° |
| 2026-05-07 00:01 | 26.29053 | -80.41150 | 15941 ft | 393 kts | 281° |
| 2026-05-07 00:01 | 26.29475 | -80.44159 | 16578 ft | 395 kts | 281° |
| 2026-05-07 00:01 | 26.29899 | -80.47186 | 17211 ft | 396 kts | 281° |
| 2026-05-07 00:01 | 26.30326 | -80.50226 | 17855 ft | 398 kts | 280° |
| 2026-05-07 00:02 | 26.30755 | -80.53284 | 18454 ft | 400 kts | 280° |
| 2026-05-07 00:02 | 26.31184 | -80.56353 | 19000 ft | 402 kts | 280° |
| 2026-05-07 00:02 | 26.31621 | -80.59433 | 19568 ft | 403 kts | 280° |
| 2026-05-07 00:02 | 26.32059 | -80.62522 | 20135 ft | 405 kts | 280° |
| 2026-05-07 00:03 | 26.32495 | -80.65636 | 20702 ft | 406 kts | 281° |
| 2026-05-07 00:03 | 26.32965 | -80.68740 | 21229 ft | 406 kts | 285° |
| 2026-05-07 00:03 | 26.33814 | -80.71752 | 21739 ft | 407 kts | 290° |
| 2026-05-07 00:03 | 26.34715 | -80.74747 | 22256 ft | 408 kts | 290° |
| 2026-05-07 00:04 | 26.35617 | -80.77752 | 22775 ft | 409 kts | 290° |
| 2026-05-07 00:04 | 26.36524 | -80.80770 | 23265 ft | 411 kts | 290° |
| 2026-05-07 00:04 | 26.37437 | -80.83798 | 23739 ft | 413 kts | 290° |
| 2026-05-07 00:04 | 26.38351 | -80.86830 | 24147 ft | 414 kts | 290° |
| 2026-05-07 00:05 | 26.39273 | -80.89890 | 24547 ft | 416 kts | 290° |
| 2026-05-07 00:05 | 26.40194 | -80.92956 | 24934 ft | 418 kts | 289° |
| 2026-05-07 00:05 | 26.41116 | -80.96038 | 25330 ft | 420 kts | 289° |
| 2026-05-07 00:05 | 26.42042 | -80.99150 | 25730 ft | 422 kts | 289° |
| 2026-05-07 00:06 | 26.42970 | -81.02268 | 26131 ft | 424 kts | 289° |
| 2026-05-07 00:06 | 26.43901 | -81.05395 | 26521 ft | 426 kts | 289° |
| 2026-05-07 00:06 | 26.44840 | -81.08538 | 26893 ft | 428 kts | 289° |
| 2026-05-07 00:06 | 26.45784 | -81.11697 | 27280 ft | 430 kts | 289° |
| 2026-05-07 00:07 | 26.46734 | -81.14871 | 27656 ft | 432 kts | 289° |
| 2026-05-07 00:07 | 26.47687 | -81.18055 | 28036 ft | 434 kts | 289° |
| 2026-05-07 00:07 | 26.48631 | -81.21230 | 28421 ft | 436 kts | 289° |
| 2026-05-07 00:07 | 26.49583 | -81.24448 | 28811 ft | 438 kts | 289° |
| 2026-05-07 00:08 | 26.50542 | -81.27690 | 29183 ft | 440 kts | 289° |
| 2026-05-07 00:08 | 26.51504 | -81.30936 | 29566 ft | 441 kts | 289° |
| 2026-05-07 00:08 | 26.52466 | -81.34178 | 30100 ft | 438 kts | 289° |
| 2026-05-07 00:08 | 26.53423 | -81.37401 | 30576 ft | 436 kts | 289° |
| 2026-05-07 00:09 | 26.54374 | -81.40602 | 31025 ft | 434 kts | 289° |
| 2026-05-07 00:09 | 26.55320 | -81.43800 | 31481 ft | 432 kts | 289° |
| 2026-05-07 00:09 | 26.56260 | -81.46979 | 31935 ft | 430 kts | 289° |
| 2026-05-07 00:09 | 26.57196 | -81.50152 | 32399 ft | 428 kts | 289° |
| 2026-05-07 00:10 | 26.58123 | -81.53304 | 32859 ft | 426 kts | 289° |
| 2026-05-07 00:10 | 26.59045 | -81.56438 | 33323 ft | 424 kts | 289° |
| 2026-05-07 00:10 | 26.59962 | -81.59567 | 33784 ft | 423 kts | 289° |
| 2026-05-07 00:10 | 26.60872 | -81.62680 | 34222 ft | 421 kts | 289° |
| 2026-05-07 00:11 | 26.61779 | -81.65786 | 34602 ft | 419 kts | 289° |
| 2026-05-07 00:11 | 26.62683 | -81.68876 | 34987 ft | 418 kts | 289° |
| 2026-05-07 00:11 | 26.63590 | -81.71960 | 35360 ft | 417 kts | 289° |
| 2026-05-07 00:11 | 26.64496 | -81.75041 | 35743 ft | 416 kts | 289° |
| 2026-05-07 00:12 | 26.65396 | -81.78110 | 36113 ft | 415 kts | 288° |
| 2026-05-07 00:12 | 26.66291 | -81.81170 | 36483 ft | 414 kts | 288° |
| 2026-05-07 00:12 | 26.67186 | -81.84227 | 36844 ft | 413 kts | 288° |
| 2026-05-07 00:12 | 26.68079 | -81.87277 | 37200 ft | 412 kts | 288° |
| 2026-05-07 00:13 | 26.68969 | -81.90322 | 37546 ft | 411 kts | 288° |
| 2026-05-07 00:13 | 26.69854 | -81.93356 | 37867 ft | 410 kts | 288° |
| 2026-05-07 00:13 | 26.70736 | -81.96389 | 38042 ft | 410 kts | 288° |
| 2026-05-07 00:13 | 26.71612 | -81.99411 | 38067 ft | 407 kts | 288° |
| 2026-05-07 00:14 | 26.73351 | -82.05420 | 38080 ft | 405 kts | 288° |
| 2026-05-07 00:14 | 26.75078 | -82.11378 | 38080 ft | 405 kts | 288° |
| 2026-05-07 00:15 | 26.76810 | -82.17381 | 38078 ft | 405 kts | 288° |
| 2026-05-07 00:15 | 26.78539 | -82.23374 | 38081 ft | 405 kts | 288° |
| 2026-05-07 00:16 | 26.80268 | -82.29377 | 38079 ft | 405 kts | 288° |
| 2026-05-07 00:16 | 26.81996 | -82.35381 | 38090 ft | 405 kts | 288° |
| 2026-05-07 00:17 | 26.83723 | -82.41393 | 38082 ft | 406 kts | 288° |
| 2026-05-07 00:17 | 26.85449 | -82.47414 | 38081 ft | 406 kts | 288° |
| 2026-05-07 00:18 | 26.87180 | -82.53440 | 38085 ft | 406 kts | 288° |
| 2026-05-07 00:18 | 26.88905 | -82.59477 | 38088 ft | 407 kts | 288° |
| 2026-05-07 00:19 | 26.90624 | -82.65514 | 38095 ft | 407 kts | 288° |
| 2026-05-07 00:19 | 26.92228 | -82.71158 | 38091 ft | 407 kts | 288° |
| 2026-05-07 00:20 | 26.93953 | -82.77206 | 38103 ft | 407 kts | 288° |
| 2026-05-07 00:20 | 26.95662 | -82.83211 | 38094 ft | 407 kts | 288° |
| 2026-05-07 00:21 | 26.97390 | -82.89300 | 38095 ft | 408 kts | 288° |
| 2026-05-07 00:21 | 26.99091 | -82.95331 | 38092 ft | 408 kts | 287° |
| 2026-05-07 00:22 | 27.00800 | -83.01395 | 38105 ft | 408 kts | 287° |
| 2026-05-07 00:22 | 27.02512 | -83.07450 | 38097 ft | 407 kts | 287° |
| 2026-05-07 00:23 | 27.04204 | -83.13504 | 38104 ft | 406 kts | 287° |
| 2026-05-07 00:23 | 27.05895 | -83.19548 | 38094 ft | 406 kts | 287° |
| 2026-05-07 00:24 | 27.07595 | -83.25582 | 38091 ft | 406 kts | 287° |
| 2026-05-07 00:24 | 27.09287 | -83.31619 | 38094 ft | 405 kts | 287° |
| 2026-05-07 00:25 | 27.10969 | -83.37655 | 38099 ft | 405 kts | 287° |
| 2026-05-07 00:25 | 27.12655 | -83.43699 | 38090 ft | 405 kts | 287° |
| 2026-05-07 00:26 | 27.14330 | -83.49743 | 38094 ft | 405 kts | 287° |
| 2026-05-07 00:26 | 27.15998 | -83.55748 | 38098 ft | 405 kts | 287° |
| 2026-05-07 00:27 | 27.17684 | -83.61792 | 38096 ft | 405 kts | 287° |
| 2026-05-07 00:27 | 27.19346 | -83.67841 | 38103 ft | 405 kts | 287° |
| 2026-05-07 00:28 | 27.21012 | -83.73898 | 38090 ft | 405 kts | 287° |
| 2026-05-07 00:28 | 27.22685 | -83.79952 | 38100 ft | 405 kts | 287° |
| 2026-05-07 00:29 | 27.24351 | -83.86000 | 38089 ft | 405 kts | 287° |
| 2026-05-07 00:30 | 27.27668 | -83.98107 | 38102 ft | 405 kts | 286° |
| 2026-05-07 00:30 | 27.29335 | -84.04170 | 38089 ft | 406 kts | 286° |
| 2026-05-07 00:31 | 27.30995 | -84.10243 | 38106 ft | 406 kts | 286° |
| 2026-05-07 00:31 | 27.32637 | -84.16307 | 38096 ft | 405 kts | 286° |
| 2026-05-07 00:32 | 27.34281 | -84.22374 | 38088 ft | 405 kts | 286° |
| 2026-05-07 00:32 | 27.35930 | -84.28400 | 38111 ft | 405 kts | 286° |
| 2026-05-07 00:33 | 27.37577 | -84.34471 | 38111 ft | 405 kts | 286° |
| 2026-05-07 00:33 | 27.39211 | -84.40526 | 38103 ft | 404 kts | 286° |
| 2026-05-07 00:34 | 27.40841 | -84.46573 | 38090 ft | 403 kts | 286° |
| 2026-05-07 00:34 | 27.42455 | -84.52613 | 38092 ft | 403 kts | 285° |
| 2026-05-07 00:35 | 27.44088 | -84.58661 | 38094 ft | 403 kts | 286° |
| 2026-05-07 00:35 | 27.45723 | -84.64700 | 38093 ft | 403 kts | 286° |
| 2026-05-07 00:36 | 27.47337 | -84.70743 | 38092 ft | 403 kts | 285° |
| 2026-05-07 00:36 | 27.48932 | -84.76754 | 38090 ft | 403 kts | 285° |
| 2026-05-07 00:37 | 27.50163 | -84.82895 | 38093 ft | 402 kts | 281° |
| 2026-05-07 00:37 | 27.51261 | -84.89069 | 38091 ft | 402 kts | 281° |
| 2026-05-07 00:38 | 27.52348 | -84.95241 | 38099 ft | 402 kts | 281° |
| 2026-05-07 00:38 | 27.53427 | -85.01418 | 38088 ft | 401 kts | 281° |
| 2026-05-07 00:39 | 27.54509 | -85.07591 | 38104 ft | 401 kts | 281° |
| 2026-05-07 00:39 | 27.55585 | -85.13755 | 38086 ft | 401 kts | 280° |
| 2026-05-07 00:40 | 27.56664 | -85.19927 | 38080 ft | 401 kts | 280° |
| 2026-05-07 00:40 | 27.57740 | -85.26098 | 38082 ft | 401 kts | 280° |
| 2026-05-07 00:41 | 27.58805 | -85.32275 | 38083 ft | 401 kts | 280° |
| 2026-05-07 00:41 | 27.60338 | -85.38324 | 38095 ft | 402 kts | 287° |
| 2026-05-07 00:42 | 27.62145 | -85.44301 | 38074 ft | 402 kts | 287° |
| 2026-05-07 00:42 | 27.63636 | -85.49263 | 38089 ft | 402 kts | 287° |
| 2026-05-07 00:43 | 27.65723 | -85.56211 | 38081 ft | 402 kts | 287° |
| 2026-05-07 00:43 | 27.67502 | -85.62178 | 38079 ft | 402 kts | 287° |
| 2026-05-07 00:44 | 27.68977 | -85.67158 | 38090 ft | 402 kts | 287° |
| 2026-05-07 00:44 | 27.70761 | -85.73134 | 38085 ft | 402 kts | 287° |
| 2026-05-07 00:45 | 27.72540 | -85.79106 | 38077 ft | 401 kts | 287° |
| 2026-05-07 00:45 | 27.74314 | -85.85090 | 38076 ft | 401 kts | 287° |
| 2026-05-07 00:46 | 27.76088 | -85.91076 | 38070 ft | 402 kts | 287° |
| 2026-05-07 00:46 | 27.77861 | -85.97064 | 38074 ft | 402 kts | 287° |
| 2026-05-07 00:47 | 27.79619 | -86.03014 | 38078 ft | 402 kts | 287° |
| 2026-05-07 00:47 | 27.81378 | -86.09008 | 38073 ft | 402 kts | 287° |
| 2026-05-07 00:48 | 27.83141 | -86.15013 | 38078 ft | 402 kts | 287° |
| 2026-05-07 00:48 | 27.84904 | -86.21005 | 38068 ft | 402 kts | 287° |
| 2026-05-07 00:49 | 27.86669 | -86.27011 | 38072 ft | 402 kts | 286° |
| 2026-05-07 00:49 | 27.88421 | -86.33019 | 38065 ft | 403 kts | 286° |
| 2026-05-07 00:50 | 27.90163 | -86.38997 | 38072 ft | 403 kts | 286° |
| 2026-05-07 00:50 | 27.91917 | -86.45022 | 38078 ft | 403 kts | 286° |
| 2026-05-07 00:51 | 27.93673 | -86.51053 | 38065 ft | 403 kts | 286° |
| 2026-05-07 00:51 | 27.95420 | -86.57078 | 38059 ft | 403 kts | 286° |
| 2026-05-07 00:52 | 27.97165 | -86.63097 | 38063 ft | 403 kts | 286° |
| 2026-05-07 00:52 | 27.98898 | -86.69080 | 38065 ft | 403 kts | 286° |
| 2026-05-07 00:53 | 28.00637 | -86.75112 | 38073 ft | 403 kts | 286° |
| 2026-05-07 00:53 | 28.02400 | -86.81131 | 38053 ft | 403 kts | 287° |
| 2026-05-07 00:54 | 28.04200 | -86.87145 | 38066 ft | 403 kts | 287° |
| 2026-05-07 00:54 | 28.05996 | -86.93148 | 38063 ft | 402 kts | 287° |
| 2026-05-07 00:55 | 28.07790 | -86.99160 | 38053 ft | 402 kts | 287° |
| 2026-05-07 00:55 | 28.09559 | -87.05131 | 38049 ft | 402 kts | 286° |
| 2026-05-07 00:56 | 28.11326 | -87.11132 | 38046 ft | 402 kts | 286° |
| 2026-05-07 00:56 | 28.13103 | -87.17140 | 38047 ft | 402 kts | 286° |
| 2026-05-07 00:57 | 28.14880 | -87.23150 | 38049 ft | 402 kts | 286° |
| 2026-05-07 00:57 | 28.16649 | -87.29175 | 38048 ft | 402 kts | 286° |
| 2026-05-07 00:58 | 28.18412 | -87.35199 | 38052 ft | 403 kts | 286° |
| 2026-05-07 00:58 | 28.20177 | -87.41229 | 38048 ft | 402 kts | 286° |
| 2026-05-07 00:59 | 28.22819 | -87.50221 | 38043 ft | 402 kts | 286° |
| 2026-05-07 01:00 | 28.24577 | -87.56245 | 38043 ft | 402 kts | 286° |
| 2026-05-07 01:00 | 28.26335 | -87.62272 | 38046 ft | 402 kts | 286° |
| 2026-05-07 01:01 | 28.28089 | -87.68295 | 38048 ft | 402 kts | 286° |
| 2026-05-07 01:01 | 28.29837 | -87.74327 | 38037 ft | 402 kts | 286° |
| 2026-05-07 01:02 | 28.31580 | -87.80365 | 38038 ft | 403 kts | 286° |
| 2026-05-07 01:02 | 28.33323 | -87.86418 | 38036 ft | 403 kts | 286° |
| 2026-05-07 01:03 | 28.35076 | -87.92471 | 38036 ft | 403 kts | 286° |
| 2026-05-07 01:03 | 28.36803 | -87.98480 | 38049 ft | 402 kts | 286° |
| 2026-05-07 01:04 | 28.38635 | -88.04484 | 38036 ft | 403 kts | 291° |
| 2026-05-07 01:04 | 28.40937 | -88.10294 | 38049 ft | 404 kts | 291° |
| 2026-05-07 01:05 | 28.43229 | -88.16118 | 38037 ft | 403 kts | 291° |
| 2026-05-07 01:05 | 28.45505 | -88.21936 | 38032 ft | 402 kts | 291° |
| 2026-05-07 01:06 | 28.47774 | -88.27744 | 38033 ft | 402 kts | 291° |
| 2026-05-07 01:06 | 28.50046 | -88.33553 | 38026 ft | 402 kts | 291° |
| 2026-05-07 01:07 | 28.52301 | -88.39323 | 38028 ft | 402 kts | 291° |
| 2026-05-07 01:07 | 28.54568 | -88.45144 | 38027 ft | 402 kts | 291° |
| 2026-05-07 01:08 | 28.56837 | -88.50976 | 38001 ft | 406 kts | 291° |
| 2026-05-07 01:08 | 28.59150 | -88.56948 | 37999 ft | 416 kts | 291° |
| 2026-05-07 01:09 | 28.61497 | -88.62995 | 37997 ft | 418 kts | 291° |
| 2026-05-07 01:09 | 28.63849 | -88.69047 | 37997 ft | 418 kts | 291° |
| 2026-05-07 01:10 | 28.66195 | -88.75105 | 38013 ft | 418 kts | 291° |
| 2026-05-07 01:10 | 28.68523 | -88.81148 | 37991 ft | 416 kts | 290° |
| 2026-05-07 01:11 | 28.70852 | -88.87180 | 37987 ft | 416 kts | 290° |
| 2026-05-07 01:11 | 28.73167 | -88.93185 | 37988 ft | 417 kts | 290° |
| 2026-05-07 01:12 | 28.75491 | -88.99249 | 37996 ft | 418 kts | 290° |
| 2026-05-07 01:12 | 28.77818 | -89.05319 | 38002 ft | 418 kts | 290° |
| 2026-05-07 01:13 | 28.80149 | -89.11400 | 38002 ft | 419 kts | 290° |
| 2026-05-07 01:13 | 28.82480 | -89.17489 | 38004 ft | 419 kts | 290° |
| 2026-05-07 01:14 | 28.84806 | -89.23590 | 38005 ft | 419 kts | 290° |
| 2026-05-07 01:14 | 28.87128 | -89.29691 | 38003 ft | 419 kts | 290° |
| 2026-05-07 01:15 | 28.89456 | -89.35797 | 38003 ft | 419 kts | 290° |
| 2026-05-07 01:15 | 28.91779 | -89.41905 | 38000 ft | 419 kts | 290° |
| 2026-05-07 01:16 | 28.94057 | -89.47911 | 37974 ft | 406 kts | 290° |
| 2026-05-07 01:16 | 28.96283 | -89.53786 | 37984 ft | 401 kts | 289° |
| 2026-05-07 01:17 | 28.98486 | -89.59615 | 37974 ft | 399 kts | 289° |
| 2026-05-07 01:17 | 29.00682 | -89.65431 | 37975 ft | 399 kts | 289° |
| 2026-05-07 01:18 | 29.02880 | -89.71260 | 37977 ft | 399 kts | 289° |
| 2026-05-07 01:18 | 29.05069 | -89.77097 | 37981 ft | 399 kts | 289° |
| 2026-05-07 01:19 | 29.07259 | -89.82941 | 37983 ft | 400 kts | 289° |
| 2026-05-07 01:19 | 29.09438 | -89.88750 | 37987 ft | 400 kts | 289° |
| 2026-05-07 01:20 | 29.11632 | -89.94608 | 37992 ft | 400 kts | 289° |
| 2026-05-07 01:20 | 29.13825 | -90.00470 | 37993 ft | 401 kts | 289° |
| 2026-05-07 01:21 | 29.16010 | -90.06332 | 37992 ft | 401 kts | 289° |
| 2026-05-07 01:21 | 29.17858 | -90.12317 | 37992 ft | 396 kts | 278° |
| 2026-05-07 01:22 | 29.18894 | -90.18496 | 37969 ft | 395 kts | 278° |
| 2026-05-07 01:22 | 29.19938 | -90.24669 | 37970 ft | 394 kts | 278° |
| 2026-05-07 01:23 | 29.20974 | -90.30804 | 37971 ft | 394 kts | 278° |
| 2026-05-07 01:23 | 29.22007 | -90.36967 | 37968 ft | 395 kts | 278° |
| 2026-05-07 01:24 | 29.23042 | -90.43140 | 37970 ft | 395 kts | 278° |
| 2026-05-07 01:24 | 29.24082 | -90.49333 | 37976 ft | 396 kts | 278° |
| 2026-05-07 01:25 | 29.25115 | -90.55534 | 37993 ft | 396 kts | 278° |
| 2026-05-07 01:25 | 29.26152 | -90.61741 | 37988 ft | 396 kts | 278° |
| 2026-05-07 01:26 | 29.27183 | -90.67934 | 37984 ft | 396 kts | 278° |
| 2026-05-07 01:26 | 29.28198 | -90.74094 | 37983 ft | 396 kts | 277° |
| 2026-05-07 01:27 | 29.29215 | -90.80285 | 37991 ft | 395 kts | 277° |
| 2026-05-07 01:27 | 29.30226 | -90.86476 | 37988 ft | 395 kts | 277° |
| 2026-05-07 01:28 | 29.31236 | -90.92671 | 37984 ft | 395 kts | 277° |
| 2026-05-07 01:28 | 29.32249 | -90.98856 | 37984 ft | 395 kts | 277° |
| 2026-05-07 01:29 | 29.33264 | -91.05043 | 37982 ft | 395 kts | 277° |
| 2026-05-07 01:29 | 29.34269 | -91.11238 | 37979 ft | 395 kts | 277° |
| 2026-05-07 01:30 | 29.35096 | -91.16378 | 37989 ft | 395 kts | 277° |
| 2026-05-07 01:30 | 29.36096 | -91.22575 | 37984 ft | 395 kts | 277° |
| 2026-05-07 01:31 | 29.37093 | -91.28769 | 37980 ft | 395 kts | 277° |
| 2026-05-07 01:31 | 29.38090 | -91.34967 | 37979 ft | 395 kts | 277° |
| 2026-05-07 01:32 | 29.39077 | -91.41161 | 37976 ft | 395 kts | 277° |
| 2026-05-07 01:32 | 29.40054 | -91.47361 | 37977 ft | 395 kts | 277° |
| 2026-05-07 01:33 | 29.41041 | -91.53563 | 37985 ft | 395 kts | 277° |
| 2026-05-07 01:33 | 29.42030 | -91.59763 | 37981 ft | 395 kts | 276° |
| 2026-05-07 01:34 | 29.43010 | -91.65961 | 37976 ft | 395 kts | 276° |
| 2026-05-07 01:34 | 29.43979 | -91.72159 | 37969 ft | 395 kts | 276° |
| 2026-05-07 01:35 | 29.44949 | -91.78355 | 37972 ft | 395 kts | 276° |
| 2026-05-07 01:35 | 29.45920 | -91.84550 | 37964 ft | 395 kts | 276° |
| 2026-05-07 01:36 | 29.46880 | -91.90708 | 37969 ft | 394 kts | 276° |
| 2026-05-07 01:36 | 29.47842 | -91.96901 | 37975 ft | 394 kts | 276° |
| 2026-05-07 01:37 | 29.48808 | -92.03134 | 37971 ft | 394 kts | 276° |
| 2026-05-07 01:37 | 29.49761 | -92.09291 | 37968 ft | 394 kts | 276° |
| 2026-05-07 01:38 | 29.50709 | -92.15481 | 37962 ft | 394 kts | 276° |
| 2026-05-07 01:38 | 29.51653 | -92.21666 | 37957 ft | 394 kts | 276° |
| 2026-05-07 01:39 | 29.52600 | -92.27857 | 37973 ft | 393 kts | 276° |
| 2026-05-07 01:39 | 29.53543 | -92.34022 | 37954 ft | 390 kts | 276° |
| 2026-05-07 01:40 | 29.54479 | -92.40149 | 37957 ft | 389 kts | 276° |
| 2026-05-07 01:40 | 29.55407 | -92.46277 | 37949 ft | 389 kts | 276° |
| 2026-05-07 01:41 | 29.56327 | -92.52400 | 37952 ft | 389 kts | 276° |
| 2026-05-07 01:41 | 29.57248 | -92.58525 | 37952 ft | 389 kts | 276° |
| 2026-05-07 01:42 | 29.58171 | -92.64657 | 37950 ft | 389 kts | 276° |
| 2026-05-07 01:42 | 29.59088 | -92.70789 | 37961 ft | 389 kts | 275° |
| 2026-05-07 01:43 | 29.60001 | -92.76919 | 37948 ft | 389 kts | 275° |
| 2026-05-07 01:43 | 29.60903 | -92.83010 | 37953 ft | 389 kts | 275° |
| 2026-05-07 01:44 | 29.61807 | -92.89130 | 37952 ft | 389 kts | 275° |
| 2026-05-07 01:44 | 29.62711 | -92.95255 | 37947 ft | 389 kts | 275° |
| 2026-05-07 01:45 | 29.63616 | -93.01383 | 37942 ft | 389 kts | 275° |
| 2026-05-07 01:45 | 29.64518 | -93.07508 | 37969 ft | 389 kts | 275° |
| 2026-05-07 01:46 | 29.65412 | -93.13624 | 37959 ft | 388 kts | 275° |
| 2026-05-07 01:46 | 29.66299 | -93.19731 | 37954 ft | 387 kts | 275° |
| 2026-05-07 01:47 | 29.67189 | -93.25837 | 37954 ft | 387 kts | 275° |
| 2026-05-07 01:47 | 29.68074 | -93.31934 | 37951 ft | 386 kts | 275° |
| 2026-05-07 01:48 | 29.68948 | -93.38042 | 37947 ft | 386 kts | 275° |
| 2026-05-07 01:48 | 29.69821 | -93.44136 | 37941 ft | 386 kts | 275° |
| 2026-05-07 01:49 | 29.70693 | -93.50230 | 37950 ft | 386 kts | 275° |
| 2026-05-07 01:49 | 29.71557 | -93.56299 | 37940 ft | 386 kts | 275° |
| 2026-05-07 01:50 | 29.72424 | -93.62402 | 37941 ft | 386 kts | 275° |
| 2026-05-07 01:50 | 29.73286 | -93.68501 | 37941 ft | 386 kts | 275° |
| 2026-05-07 01:51 | 29.74150 | -93.74601 | 37944 ft | 386 kts | 275° |
| 2026-05-07 01:51 | 29.75013 | -93.80704 | 37950 ft | 386 kts | 274° |
| 2026-05-07 01:52 | 29.75869 | -93.86797 | 37942 ft | 386 kts | 274° |
| 2026-05-07 01:52 | 29.76715 | -93.92892 | 37934 ft | 385 kts | 274° |
| 2026-05-07 01:53 | 29.77560 | -93.98955 | 37926 ft | 382 kts | 274° |
| 2026-05-07 01:53 | 29.78400 | -94.04981 | 37929 ft | 381 kts | 274° |
| 2026-05-07 01:54 | 29.79237 | -94.11010 | 37926 ft | 381 kts | 274° |
| 2026-05-07 01:54 | 29.80064 | -94.17012 | 37920 ft | 382 kts | 274° |
| 2026-05-07 01:55 | 29.80888 | -94.23044 | 37937 ft | 381 kts | 274° |
| 2026-05-07 01:55 | 29.81716 | -94.29072 | 37937 ft | 380 kts | 274° |
| 2026-05-07 01:56 | 29.82537 | -94.35088 | 37932 ft | 380 kts | 274° |
| 2026-05-07 01:56 | 29.83351 | -94.41093 | 37924 ft | 379 kts | 274° |
| 2026-05-07 01:57 | 29.84167 | -94.47098 | 37923 ft | 379 kts | 274° |
| 2026-05-07 01:57 | 29.84976 | -94.53103 | 37920 ft | 379 kts | 274° |
| 2026-05-07 01:58 | 29.85785 | -94.59095 | 37930 ft | 379 kts | 274° |
| 2026-05-07 01:58 | 29.86589 | -94.65086 | 37934 ft | 378 kts | 274° |
| 2026-05-07 01:59 | 29.87380 | -94.71030 | 37923 ft | 377 kts | 274° |
| 2026-05-07 01:59 | 29.88172 | -94.77009 | 37920 ft | 377 kts | 274° |
| 2026-05-07 02:00 | 29.88972 | -94.82983 | 37926 ft | 377 kts | 274° |
| 2026-05-07 02:00 | 29.89759 | -94.88944 | 37923 ft | 376 kts | 273° |
| 2026-05-07 02:01 | 29.90533 | -94.94910 | 37924 ft | 376 kts | 273° |
| 2026-05-07 02:01 | 29.91317 | -95.00881 | 37935 ft | 376 kts | 273° |
| 2026-05-07 02:02 | 29.92108 | -95.06841 | 37941 ft | 376 kts | 273° |
| 2026-05-07 02:02 | 29.92883 | -95.12772 | 37947 ft | 375 kts | 273° |
| 2026-05-07 02:03 | 29.93652 | -95.18722 | 37953 ft | 375 kts | 273° |
| 2026-05-07 02:03 | 29.94419 | -95.24673 | 37958 ft | 375 kts | 273° |
| 2026-05-07 02:04 | 29.95185 | -95.30624 | 37958 ft | 375 kts | 273° |
| 2026-05-07 02:04 | 29.95964 | -95.36577 | 37963 ft | 375 kts | 274° |
| 2026-05-07 02:05 | 29.96899 | -95.42476 | 37960 ft | 376 kts | 275° |
| 2026-05-07 02:05 | 29.97905 | -95.48388 | 37964 ft | 376 kts | 275° |
| 2026-05-07 02:06 | 29.98877 | -95.54326 | 37966 ft | 376 kts | 275° |
| 2026-05-07 02:06 | 29.99824 | -95.60255 | 37987 ft | 375 kts | 275° |
| 2026-05-07 02:07 | 30.00755 | -95.66114 | 37861 ft | 370 kts | 275° |
| 2026-05-07 02:07 | 30.02130 | -95.74846 | 37892 ft | 370 kts | 274° |
| 2026-05-07 02:08 | 30.03051 | -95.80696 | 37893 ft | 370 kts | 275° |
| 2026-05-07 02:08 | 30.03978 | -95.86549 | 37895 ft | 370 kts | 275° |
| 2026-05-07 02:09 | 30.04897 | -95.92395 | 37886 ft | 370 kts | 274° |
| 2026-05-07 02:09 | 30.05811 | -95.98253 | 37860 ft | 370 kts | 274° |
| 2026-05-07 02:10 | 30.06727 | -96.04109 | 37840 ft | 370 kts | 274° |
| 2026-05-07 02:10 | 30.07637 | -96.09959 | 37832 ft | 370 kts | 274° |
| 2026-05-07 02:11 | 30.08540 | -96.15799 | 37798 ft | 369 kts | 274° |
| 2026-05-07 02:11 | 30.09437 | -96.21629 | 37792 ft | 368 kts | 274° |
| 2026-05-07 02:12 | 30.10332 | -96.27444 | 37800 ft | 367 kts | 274° |
| 2026-05-07 02:12 | 30.11077 | -96.32272 | 37799 ft | 367 kts | 274° |
| 2026-05-07 02:13 | 30.11963 | -96.38073 | 37803 ft | 367 kts | 274° |
| 2026-05-07 02:13 | 30.12988 | -96.44812 | 37820 ft | 367 kts | 274° |
| 2026-05-07 02:14 | 30.13731 | -96.49668 | 37824 ft | 366 kts | 274° |
| 2026-05-07 02:14 | 30.14614 | -96.55468 | 37844 ft | 366 kts | 274° |
| 2026-05-07 02:15 | 30.15495 | -96.61273 | 37876 ft | 366 kts | 274° |
| 2026-05-07 02:15 | 30.16366 | -96.67036 | 37916 ft | 366 kts | 274° |
| 2026-05-07 02:16 | 30.17239 | -96.72838 | 37967 ft | 366 kts | 274° |
| 2026-05-07 02:16 | 30.18106 | -96.78627 | 38001 ft | 366 kts | 274° |
| 2026-05-07 02:17 | 30.18974 | -96.84422 | 38051 ft | 366 kts | 274° |
| 2026-05-07 02:17 | 30.19837 | -96.90231 | 38063 ft | 366 kts | 273° |
| 2026-05-07 02:18 | 30.20695 | -96.96027 | 38058 ft | 366 kts | 273° |
| 2026-05-07 02:18 | 30.21554 | -97.01830 | 38057 ft | 365 kts | 273° |
| 2026-05-07 02:19 | 30.22405 | -97.07582 | 38047 ft | 363 kts | 273° |
| 2026-05-07 02:19 | 30.23257 | -97.13336 | 38023 ft | 363 kts | 273° |
| 2026-05-07 02:20 | 30.24099 | -97.19091 | 37946 ft | 363 kts | 273° |
| 2026-05-07 02:20 | 30.24933 | -97.24851 | 37946 ft | 363 kts | 273° |
| 2026-05-07 02:21 | 30.25766 | -97.30574 | 37970 ft | 363 kts | 273° |
| 2026-05-07 02:21 | 30.26601 | -97.36323 | 37971 ft | 362 kts | 273° |
| 2026-05-07 02:22 | 30.27435 | -97.42079 | 37968 ft | 362 kts | 272° |
| 2026-05-07 02:22 | 30.28267 | -97.47827 | 37967 ft | 363 kts | 273° |
| 2026-05-07 02:23 | 30.29102 | -97.53586 | 37972 ft | 363 kts | 273° |
| 2026-05-07 02:23 | 30.29930 | -97.59345 | 38010 ft | 363 kts | 272° |
| 2026-05-07 02:24 | 30.30751 | -97.65111 | 38009 ft | 363 kts | 272° |
| 2026-05-07 02:24 | 30.31574 | -97.70874 | 38008 ft | 363 kts | 272° |
| 2026-05-07 02:25 | 30.32391 | -97.76647 | 38008 ft | 363 kts | 272° |
| 2026-05-07 02:25 | 30.33204 | -97.82385 | 38056 ft | 363 kts | 272° |
| 2026-05-07 02:26 | 30.34016 | -97.88156 | 38062 ft | 363 kts | 272° |
| 2026-05-07 02:26 | 30.34826 | -97.93930 | 38069 ft | 363 kts | 272° |
| 2026-05-07 02:27 | 30.35632 | -97.99697 | 38072 ft | 363 kts | 272° |
| 2026-05-07 02:27 | 30.36438 | -98.05474 | 38068 ft | 363 kts | 272° |
| 2026-05-07 02:28 | 30.37248 | -98.11245 | 38062 ft | 363 kts | 272° |
| 2026-05-07 02:28 | 30.38046 | -98.17032 | 38057 ft | 364 kts | 272° |
| 2026-05-07 02:29 | 30.38841 | -98.22817 | 38057 ft | 364 kts | 272° |
| 2026-05-07 02:29 | 30.39647 | -98.28610 | 38069 ft | 364 kts | 272° |
| 2026-05-07 02:30 | 30.40450 | -98.34395 | 38078 ft | 364 kts | 272° |
| 2026-05-07 02:30 | 30.41241 | -98.40178 | 38077 ft | 363 kts | 272° |
| 2026-05-07 02:31 | 30.42022 | -98.45925 | 38002 ft | 364 kts | 272° |
| 2026-05-07 02:31 | 30.42812 | -98.51751 | 38004 ft | 364 kts | 272° |
| 2026-05-07 02:32 | 30.43589 | -98.57502 | 38009 ft | 364 kts | 272° |
| 2026-05-07 02:32 | 30.44374 | -98.63296 | 38013 ft | 364 kts | 272° |
| 2026-05-07 02:33 | 30.45157 | -98.69095 | 38018 ft | 364 kts | 272° |
| 2026-05-07 02:33 | 30.45936 | -98.74887 | 38019 ft | 364 kts | 271° |
| 2026-05-07 02:34 | 30.46709 | -98.80677 | 38009 ft | 363 kts | 271° |
| 2026-05-07 02:34 | 30.47484 | -98.86455 | 38004 ft | 363 kts | 271° |
| 2026-05-07 02:35 | 30.48253 | -98.92241 | 38006 ft | 363 kts | 271° |
| 2026-05-07 02:35 | 30.49017 | -98.98023 | 38000 ft | 363 kts | 271° |
| 2026-05-07 02:36 | 30.49778 | -99.03805 | 38003 ft | 363 kts | 271° |
| 2026-05-07 02:36 | 30.50539 | -99.09594 | 37998 ft | 363 kts | 271° |
| 2026-05-07 02:37 | 30.51291 | -99.15346 | 37999 ft | 363 kts | 271° |
| 2026-05-07 02:37 | 30.52047 | -99.21132 | 37998 ft | 363 kts | 271° |
| 2026-05-07 02:38 | 30.52802 | -99.26911 | 37994 ft | 363 kts | 271° |
| 2026-05-07 02:38 | 30.53553 | -99.32694 | 37993 ft | 362 kts | 271° |
| 2026-05-07 02:39 | 30.54296 | -99.38477 | 38001 ft | 362 kts | 271° |
| 2026-05-07 02:39 | 30.55046 | -99.44264 | 38011 ft | 362 kts | 271° |
| 2026-05-07 02:40 | 30.55791 | -99.50049 | 38032 ft | 362 kts | 271° |
| 2026-05-07 02:40 | 30.56524 | -99.55829 | 38043 ft | 362 kts | 271° |
| 2026-05-07 02:41 | 30.57254 | -99.61620 | 38059 ft | 362 kts | 271° |
| 2026-05-07 02:41 | 30.57988 | -99.67395 | 38072 ft | 362 kts | 271° |
| 2026-05-07 02:42 | 30.58719 | -99.73171 | 38076 ft | 362 kts | 271° |
| 2026-05-07 02:42 | 30.59442 | -99.78904 | 38093 ft | 361 kts | 271° |
| 2026-05-07 02:43 | 30.60420 | -99.84626 | 38093 ft | 363 kts | 275° |
| 2026-05-07 02:43 | 30.61651 | -99.90307 | 38063 ft | 362 kts | 276° |
| 2026-05-07 02:44 | 30.62878 | -99.95981 | 38040 ft | 362 kts | 275° |
| 2026-05-07 02:44 | 30.64094 | -100.01643 | 38017 ft | 361 kts | 275° |
| 2026-05-07 02:45 | 30.65300 | -100.07305 | 37996 ft | 361 kts | 275° |
| 2026-05-07 02:45 | 30.66515 | -100.12973 | 37976 ft | 362 kts | 275° |
| 2026-05-07 02:46 | 30.67721 | -100.18638 | 37982 ft | 362 kts | 275° |
| 2026-05-07 02:46 | 30.68921 | -100.24316 | 37986 ft | 362 kts | 275° |
| 2026-05-07 02:47 | 30.70125 | -100.29996 | 37979 ft | 362 kts | 275° |
| 2026-05-07 02:47 | 30.71332 | -100.35676 | 38013 ft | 362 kts | 275° |
| 2026-05-07 02:48 | 30.72533 | -100.41367 | 38026 ft | 362 kts | 275° |
| 2026-05-07 02:48 | 30.73731 | -100.47055 | 38041 ft | 362 kts | 275° |
| 2026-05-07 02:49 | 30.74927 | -100.52738 | 38050 ft | 362 kts | 275° |
| 2026-05-07 02:49 | 30.76116 | -100.58399 | 38054 ft | 362 kts | 275° |
| 2026-05-07 02:50 | 30.77305 | -100.64099 | 38050 ft | 363 kts | 275° |
| 2026-05-07 02:50 | 30.78498 | -100.69800 | 38042 ft | 363 kts | 275° |
| 2026-05-07 02:51 | 30.79687 | -100.75517 | 38072 ft | 363 kts | 275° |
| 2026-05-07 02:51 | 30.80875 | -100.81222 | 38020 ft | 362 kts | 274° |
| 2026-05-07 02:52 | 30.82053 | -100.86925 | 37992 ft | 363 kts | 274° |
| 2026-05-07 02:52 | 30.83231 | -100.92640 | 38006 ft | 363 kts | 274° |
| 2026-05-07 02:53 | 30.84413 | -100.98355 | 38029 ft | 363 kts | 274° |
| 2026-05-07 02:53 | 30.85592 | -101.04077 | 38041 ft | 363 kts | 274° |
| 2026-05-07 02:54 | 30.86761 | -101.09797 | 38051 ft | 363 kts | 274° |
| 2026-05-07 02:54 | 30.87934 | -101.15518 | 38060 ft | 363 kts | 274° |
| 2026-05-07 02:55 | 30.89106 | -101.21241 | 38049 ft | 363 kts | 274° |
| 2026-05-07 02:55 | 30.90268 | -101.26960 | 37964 ft | 363 kts | 274° |
| 2026-05-07 02:56 | 30.91427 | -101.32688 | 37962 ft | 363 kts | 274° |
| 2026-05-07 02:56 | 30.92584 | -101.38383 | 37967 ft | 363 kts | 274° |
| 2026-05-07 02:57 | 30.93749 | -101.44109 | 37970 ft | 364 kts | 274° |
| 2026-05-07 02:57 | 30.94910 | -101.49843 | 37957 ft | 363 kts | 274° |
| 2026-05-07 02:58 | 30.95872 | -101.54646 | 37956 ft | 363 kts | 274° |
| 2026-05-07 02:58 | 30.97025 | -101.60377 | 37947 ft | 363 kts | 274° |
| 2026-05-07 02:59 | 30.98168 | -101.66081 | 37950 ft | 363 kts | 274° |
| 2026-05-07 02:59 | 30.99318 | -101.71855 | 37959 ft | 362 kts | 274° |
| 2026-05-07 03:00 | 31.00443 | -101.77494 | 37930 ft | 358 kts | 273° |
| 2026-05-07 03:00 | 31.01570 | -101.83163 | 37927 ft | 359 kts | 274° |
| 2026-05-07 03:01 | 31.02700 | -101.88850 | 37929 ft | 360 kts | 274° |
| 2026-05-07 03:01 | 31.03828 | -101.94551 | 37919 ft | 361 kts | 273° |
| 2026-05-07 03:02 | 31.04955 | -102.00261 | 37923 ft | 361 kts | 274° |
| 2026-05-07 03:02 | 31.06085 | -102.05972 | 37946 ft | 362 kts | 273° |
| 2026-05-07 03:03 | 31.07203 | -102.11693 | 37940 ft | 362 kts | 273° |
| 2026-05-07 03:03 | 31.08322 | -102.17421 | 37935 ft | 362 kts | 273° |
| 2026-05-07 03:04 | 31.09434 | -102.23106 | 37922 ft | 362 kts | 273° |
| 2026-05-07 03:04 | 31.10553 | -102.28833 | 37921 ft | 362 kts | 273° |
| 2026-05-07 03:05 | 31.11660 | -102.34553 | 37912 ft | 362 kts | 273° |
| 2026-05-07 03:05 | 31.12772 | -102.40275 | 37910 ft | 361 kts | 273° |
| 2026-05-07 03:06 | 31.13878 | -102.46002 | 37920 ft | 361 kts | 273° |
| 2026-05-07 03:06 | 31.14985 | -102.51724 | 37908 ft | 361 kts | 273° |
| 2026-05-07 03:07 | 31.16086 | -102.57448 | 37908 ft | 361 kts | 273° |
| 2026-05-07 03:07 | 31.17175 | -102.63132 | 37902 ft | 361 kts | 273° |
| 2026-05-07 03:08 | 31.18268 | -102.68823 | 37878 ft | 356 kts | 272° |
| 2026-05-07 03:08 | 31.19344 | -102.74447 | 37868 ft | 355 kts | 272° |
| 2026-05-07 03:09 | 31.20415 | -102.80077 | 37913 ft | 356 kts | 272° |
| 2026-05-07 03:09 | 31.21491 | -102.85713 | 37905 ft | 355 kts | 272° |
| 2026-05-07 03:10 | 31.22556 | -102.91339 | 37901 ft | 354 kts | 272° |
| 2026-05-07 03:10 | 31.23621 | -102.96960 | 37896 ft | 354 kts | 272° |
| 2026-05-07 03:11 | 31.24682 | -103.02584 | 37897 ft | 354 kts | 272° |
| 2026-05-07 03:11 | 31.25740 | -103.08204 | 37892 ft | 354 kts | 272° |
| 2026-05-07 03:12 | 31.26797 | -103.13832 | 37934 ft | 354 kts | 272° |
| 2026-05-07 03:12 | 31.27852 | -103.19456 | 37945 ft | 354 kts | 272° |
| 2026-05-07 03:13 | 31.28907 | -103.25080 | 37959 ft | 354 kts | 272° |
| 2026-05-07 03:13 | 31.29950 | -103.30698 | 37980 ft | 354 kts | 272° |
| 2026-05-07 03:14 | 31.30997 | -103.36326 | 38000 ft | 354 kts | 272° |
| 2026-05-07 03:15 | 31.32549 | -103.44722 | 38026 ft | 353 kts | 272° |
| 2026-05-07 03:15 | 31.33587 | -103.50335 | 38008 ft | 353 kts | 272° |
| 2026-05-07 03:16 | 31.34624 | -103.55964 | 38000 ft | 354 kts | 272° |
| 2026-05-07 03:16 | 31.35659 | -103.61602 | 38024 ft | 355 kts | 272° |
| 2026-05-07 03:17 | 31.36702 | -103.67251 | 37991 ft | 355 kts | 272° |
| 2026-05-07 03:17 | 31.37736 | -103.72897 | 37977 ft | 355 kts | 272° |
| 2026-05-07 03:18 | 31.38762 | -103.78549 | 37954 ft | 355 kts | 272° |
| 2026-05-07 03:18 | 31.39788 | -103.84209 | 37943 ft | 355 kts | 272° |
| 2026-05-07 03:19 | 31.40813 | -103.89870 | 37918 ft | 356 kts | 272° |
| 2026-05-07 03:19 | 31.41839 | -103.95542 | 37921 ft | 356 kts | 272° |
| 2026-05-07 03:20 | 31.42865 | -104.01223 | 37923 ft | 357 kts | 272° |
| 2026-05-07 03:20 | 31.43887 | -104.06911 | 37925 ft | 357 kts | 272° |
| 2026-05-07 03:21 | 31.44908 | -104.12597 | 37937 ft | 357 kts | 272° |
| 2026-05-07 03:21 | 31.45935 | -104.18287 | 37938 ft | 357 kts | 272° |
| 2026-05-07 03:22 | 31.46951 | -104.23976 | 37948 ft | 357 kts | 272° |
| 2026-05-07 03:22 | 31.47958 | -104.29669 | 37948 ft | 357 kts | 272° |
| 2026-05-07 03:23 | 31.48966 | -104.35372 | 37949 ft | 357 kts | 272° |
| 2026-05-07 03:23 | 31.49976 | -104.41069 | 37946 ft | 357 kts | 272° |
| 2026-05-07 03:24 | 31.50983 | -104.46735 | 37951 ft | 357 kts | 272° |
| 2026-05-07 03:24 | 31.51987 | -104.52428 | 37980 ft | 357 kts | 272° |
| 2026-05-07 03:25 | 31.52984 | -104.58114 | 37967 ft | 356 kts | 272° |
| 2026-05-07 03:25 | 31.53973 | -104.63794 | 37965 ft | 356 kts | 272° |
| 2026-05-07 03:26 | 31.54967 | -104.69477 | 37962 ft | 356 kts | 272° |
| 2026-05-07 03:26 | 31.55965 | -104.75166 | 37959 ft | 355 kts | 272° |
| 2026-05-07 03:27 | 31.56945 | -104.80848 | 37958 ft | 355 kts | 272° |
| 2026-05-07 03:27 | 31.57929 | -104.86523 | 37956 ft | 355 kts | 272° |
| 2026-05-07 03:28 | 31.58916 | -104.92210 | 37968 ft | 355 kts | 272° |
| 2026-05-07 03:28 | 31.59895 | -104.97867 | 37952 ft | 352 kts | 271° |
| 2026-05-07 03:29 | 31.60857 | -105.03505 | 37951 ft | 352 kts | 271° |
| 2026-05-07 03:29 | 31.61813 | -105.09133 | 37946 ft | 352 kts | 271° |
| 2026-05-07 03:30 | 31.62776 | -105.14772 | 37943 ft | 353 kts | 271° |
| 2026-05-07 03:30 | 31.63735 | -105.20380 | 37945 ft | 353 kts | 271° |
| 2026-05-07 03:31 | 31.64693 | -105.26034 | 37944 ft | 353 kts | 271° |
| 2026-05-07 03:31 | 31.65650 | -105.31693 | 37970 ft | 353 kts | 271° |
| 2026-05-07 03:32 | 31.66611 | -105.37342 | 37963 ft | 353 kts | 271° |
| 2026-05-07 03:32 | 31.67568 | -105.42990 | 37964 ft | 352 kts | 271° |
| 2026-05-07 03:33 | 31.68438 | -105.48153 | 37952 ft | 350 kts | 271° |
| 2026-05-07 03:33 | 31.69373 | -105.53765 | 37947 ft | 350 kts | 271° |
| 2026-05-07 03:34 | 31.70307 | -105.59385 | 37948 ft | 351 kts | 271° |
| 2026-05-07 03:34 | 31.71245 | -105.65023 | 37926 ft | 351 kts | 271° |
| 2026-05-07 03:35 | 31.72186 | -105.70661 | 37920 ft | 353 kts | 271° |
| 2026-05-07 03:35 | 31.73128 | -105.76331 | 37924 ft | 354 kts | 271° |
| 2026-05-07 03:36 | 31.74070 | -105.82024 | 37923 ft | 355 kts | 271° |
| 2026-05-07 03:36 | 31.75006 | -105.87722 | 37930 ft | 356 kts | 271° |
| 2026-05-07 03:37 | 31.75943 | -105.93442 | 37926 ft | 356 kts | 271° |
| 2026-05-07 03:37 | 31.76876 | -105.99157 | 37949 ft | 357 kts | 271° |
| 2026-05-07 03:38 | 31.77810 | -106.04857 | 37947 ft | 358 kts | 271° |
| 2026-05-07 03:38 | 31.78761 | -106.10655 | 37974 ft | 360 kts | 271° |
| 2026-05-07 03:39 | 31.79700 | -106.16404 | 38009 ft | 361 kts | 271° |
| 2026-05-07 03:39 | 31.80637 | -106.22202 | 38049 ft | 361 kts | 271° |
| 2026-05-07 03:40 | 31.81569 | -106.28015 | 38079 ft | 360 kts | 269° |
| 2026-05-07 03:40 | 31.81964 | -106.32841 | 38083 ft | 356 kts | 266° |
| 2026-05-07 03:41 | 31.82396 | -106.38634 | 38083 ft | 354 kts | 266° |
| 2026-05-07 03:41 | 31.82829 | -106.44395 | 38062 ft | 354 kts | 266° |
| 2026-05-07 03:42 | 31.83261 | -106.50166 | 38076 ft | 356 kts | 267° |
| 2026-05-07 03:42 | 31.83695 | -106.55962 | 38092 ft | 355 kts | 266° |
| 2026-05-07 03:43 | 31.84120 | -106.61763 | 38118 ft | 356 kts | 266° |
| 2026-05-07 03:43 | 31.84544 | -106.67572 | 38126 ft | 356 kts | 266° |
| 2026-05-07 03:44 | 31.84968 | -106.73383 | 38114 ft | 357 kts | 266° |
| 2026-05-07 03:44 | 31.85389 | -106.79208 | 38112 ft | 358 kts | 266° |
| 2026-05-07 03:45 | 31.85805 | -106.85009 | 38090 ft | 358 kts | 266° |
| 2026-05-07 03:45 | 31.86015 | -106.87928 | 37925 ft | 359 kts | 266° |
| 2026-05-07 03:45 | 31.86225 | -106.90851 | 37926 ft | 359 kts | 266° |
| 2026-05-07 03:46 | 31.86645 | -106.96707 | 37939 ft | 359 kts | 266° |
| 2026-05-07 03:46 | 31.87059 | -107.02555 | 37935 ft | 359 kts | 266° |
| 2026-05-07 03:47 | 31.87469 | -107.08412 | 37937 ft | 360 kts | 266° |
| 2026-05-07 03:47 | 31.87878 | -107.14294 | 37933 ft | 361 kts | 266° |
| 2026-05-07 03:48 | 31.88283 | -107.20182 | 37941 ft | 362 kts | 266° |
| 2026-05-07 03:48 | 31.88690 | -107.26098 | 37949 ft | 363 kts | 266° |
| 2026-05-07 03:49 | 31.89095 | -107.32016 | 37949 ft | 363 kts | 266° |
| 2026-05-07 03:49 | 31.89502 | -107.37940 | 37951 ft | 363 kts | 266° |
| 2026-05-07 03:50 | 31.89905 | -107.43866 | 37961 ft | 363 kts | 266° |
| 2026-05-07 03:50 | 31.90304 | -107.49800 | 37967 ft | 364 kts | 266° |
| 2026-05-07 03:51 | 31.90698 | -107.55747 | 37961 ft | 365 kts | 266° |
| 2026-05-07 03:51 | 31.91091 | -107.61707 | 38001 ft | 365 kts | 266° |
| 2026-05-07 03:52 | 31.91479 | -107.67633 | 37990 ft | 365 kts | 266° |
| 2026-05-07 03:52 | 31.91866 | -107.73608 | 37985 ft | 366 kts | 266° |
| 2026-05-07 03:53 | 31.92248 | -107.79596 | 37993 ft | 367 kts | 267° |
| 2026-05-07 03:53 | 31.92646 | -107.85602 | 37978 ft | 368 kts | 267° |
| 2026-05-07 03:54 | 31.93058 | -107.91621 | 37980 ft | 369 kts | 267° |
| 2026-05-07 03:54 | 31.93470 | -107.97655 | 37981 ft | 369 kts | 267° |
| 2026-05-07 03:55 | 31.93869 | -108.03684 | 37980 ft | 370 kts | 267° |
| 2026-05-07 03:55 | 31.94264 | -108.09727 | 37984 ft | 370 kts | 267° |
| 2026-05-07 03:56 | 31.94658 | -108.15763 | 37989 ft | 370 kts | 267° |
| 2026-05-07 03:56 | 31.95053 | -108.21812 | 37989 ft | 370 kts | 267° |
| 2026-05-07 03:57 | 31.95442 | -108.27865 | 37989 ft | 370 kts | 266° |
| 2026-05-07 03:57 | 31.95829 | -108.33908 | 37988 ft | 370 kts | 266° |
| 2026-05-07 03:58 | 31.96213 | -108.39950 | 37984 ft | 370 kts | 266° |
| 2026-05-07 03:58 | 31.96599 | -108.46004 | 37993 ft | 370 kts | 267° |
| 2026-05-07 03:59 | 31.96978 | -108.52032 | 37986 ft | 372 kts | 266° |
| 2026-05-07 03:59 | 31.97352 | -108.58117 | 37982 ft | 373 kts | 266° |
| 2026-05-07 04:00 | 31.97727 | -108.64216 | 37983 ft | 373 kts | 267° |
| 2026-05-07 04:00 | 31.98106 | -108.70322 | 37993 ft | 374 kts | 266° |
| 2026-05-07 04:01 | 31.98475 | -108.76435 | 37987 ft | 374 kts | 266° |
| 2026-05-07 04:01 | 31.98837 | -108.82546 | 37991 ft | 374 kts | 266° |
| 2026-05-07 04:02 | 31.99202 | -108.88673 | 37985 ft | 375 kts | 266° |
| 2026-05-07 04:02 | 31.99565 | -108.94774 | 37986 ft | 376 kts | 266° |
| 2026-05-07 04:03 | 31.99929 | -109.00926 | 37986 ft | 376 kts | 266° |
| 2026-05-07 04:03 | 32.00289 | -109.07071 | 37986 ft | 376 kts | 266° |
| 2026-05-07 04:04 | 32.00644 | -109.13221 | 37985 ft | 376 kts | 266° |
| 2026-05-07 04:04 | 32.00993 | -109.19379 | 37977 ft | 377 kts | 266° |
| 2026-05-07 04:05 | 32.01346 | -109.25564 | 37986 ft | 378 kts | 266° |
| 2026-05-07 04:05 | 32.01700 | -109.31761 | 37980 ft | 378 kts | 266° |
| 2026-05-07 04:06 | 32.02044 | -109.37948 | 37983 ft | 378 kts | 266° |
| 2026-05-07 04:06 | 32.02382 | -109.44090 | 37969 ft | 378 kts | 266° |
| 2026-05-07 04:07 | 32.02718 | -109.50286 | 37967 ft | 380 kts | 266° |
| 2026-05-07 04:07 | 32.03054 | -109.56508 | 37971 ft | 381 kts | 266° |
| 2026-05-07 04:08 | 32.03389 | -109.62750 | 37968 ft | 381 kts | 266° |
| 2026-05-07 04:08 | 32.03721 | -109.68992 | 37978 ft | 381 kts | 266° |
| 2026-05-07 04:09 | 32.04049 | -109.75253 | 37982 ft | 382 kts | 266° |
| 2026-05-07 04:09 | 32.04380 | -109.81507 | 38016 ft | 383 kts | 266° |
| 2026-05-07 04:10 | 32.04708 | -109.87776 | 38005 ft | 384 kts | 266° |
| 2026-05-07 04:10 | 32.05035 | -109.94065 | 38007 ft | 385 kts | 266° |
| 2026-05-07 04:11 | 32.05353 | -110.00368 | 38007 ft | 385 kts | 266° |
| 2026-05-07 04:11 | 32.05666 | -110.06679 | 38028 ft | 386 kts | 266° |
| 2026-05-07 04:12 | 32.05978 | -110.13011 | 38028 ft | 388 kts | 266° |
| 2026-05-07 04:12 | 32.06293 | -110.19374 | 38010 ft | 390 kts | 267° |
| 2026-05-07 04:13 | 32.06600 | -110.25776 | 37998 ft | 392 kts | 266° |
| 2026-05-07 04:13 | 32.06897 | -110.32210 | 38001 ft | 394 kts | 266° |
| 2026-05-07 04:14 | 32.07192 | -110.38667 | 38006 ft | 395 kts | 267° |
| 2026-05-07 04:14 | 32.07498 | -110.45142 | 38012 ft | 396 kts | 267° |
| 2026-05-07 04:15 | 32.07794 | -110.51599 | 37663 ft | 398 kts | 267° |
| 2026-05-07 04:15 | 32.07943 | -110.54857 | 37394 ft | 398 kts | 267° |
| 2026-05-07 04:15 | 32.08088 | -110.58118 | 37132 ft | 398 kts | 267° |
| 2026-05-07 04:15 | 32.08231 | -110.61381 | 36868 ft | 398 kts | 266° |
| 2026-05-07 04:16 | 32.08374 | -110.64643 | 36656 ft | 399 kts | 266° |
| 2026-05-07 04:16 | 32.08517 | -110.67905 | 36413 ft | 399 kts | 266° |
| 2026-05-07 04:16 | 32.08659 | -110.71170 | 36172 ft | 399 kts | 266° |
| 2026-05-07 04:16 | 32.08799 | -110.74435 | 35932 ft | 399 kts | 266° |
| 2026-05-07 04:17 | 32.08941 | -110.77701 | 35697 ft | 399 kts | 266° |
| 2026-05-07 04:17 | 32.09141 | -110.80978 | 35480 ft | 403 kts | 271° |
| 2026-05-07 04:17 | 32.09709 | -110.83794 | 35272 ft | 414 kts | 283° |
| 2026-05-07 04:17 | 32.10956 | -110.86929 | 34592 ft | 432 kts | 293° |
| 2026-05-07 04:18 | 32.12817 | -110.89768 | 33704 ft | 444 kts | 306° |
| 2026-05-07 04:18 | 32.15258 | -110.92130 | 32652 ft | 465 kts | 320° |
| 2026-05-07 04:18 | 32.18226 | -110.93813 | 31570 ft | 482 kts | 336° |
| 2026-05-07 04:18 | 32.21484 | -110.94774 | 30391 ft | 479 kts | 342° |
| 2026-05-07 04:19 | 32.24673 | -110.95619 | 29061 ft | 472 kts | 342° |
| 2026-05-07 04:19 | 32.27853 | -110.96458 | 27750 ft | 466 kts | 343° |
| 2026-05-07 04:19 | 32.30997 | -110.97294 | 26592 ft | 457 kts | 344° |
| 2026-05-07 04:19 | 32.34041 | -110.98112 | 25817 ft | 445 kts | 344° |
| 2026-05-07 04:20 | 32.37053 | -110.98925 | 24946 ft | 442 kts | 345° |
| 2026-05-07 04:20 | 32.40029 | -110.99731 | 24106 ft | 436 kts | 345° |
| 2026-05-07 04:20 | 32.42963 | -111.00530 | 23218 ft | 429 kts | 347° |
| 2026-05-07 04:21 | 32.48744 | -111.02115 | 21591 ft | 423 kts | 347° |
| 2026-05-07 04:21 | 32.51607 | -111.02899 | 20783 ft | 421 kts | 347° |
| 2026-05-07 04:21 | 32.54454 | -111.03675 | 19956 ft | 419 kts | 347° |
| 2026-05-07 04:21 | 32.57291 | -111.04449 | 19182 ft | 417 kts | 347° |
| 2026-05-07 04:22 | 32.60112 | -111.05216 | 18433 ft | 415 kts | 347° |
| 2026-05-07 04:22 | 32.62916 | -111.05976 | 17646 ft | 412 kts | 347° |
| 2026-05-07 04:22 | 32.65691 | -111.06730 | 16959 ft | 407 kts | 348° |
| 2026-05-07 04:22 | 32.67512 | -111.07228 | 16515 ft | 404 kts | 348° |
| 2026-05-07 04:23 | 32.70236 | -111.07976 | 15836 ft | 399 kts | 348° |
| 2026-05-07 04:23 | 32.72924 | -111.08729 | 15148 ft | 395 kts | 346° |
| 2026-05-07 04:23 | 32.75485 | -111.09889 | 14437 ft | 394 kts | 335° |
| 2026-05-07 04:23 | 32.77794 | -111.11613 | 13708 ft | 393 kts | 324° |
| 2026-05-07 04:24 | 32.79786 | -111.13838 | 12911 ft | 391 kts | 314° |
| 2026-05-07 04:24 | 32.81602 | -111.16218 | 12123 ft | 387 kts | 314° |
| 2026-05-07 04:24 | 32.83413 | -111.18576 | 11343 ft | 384 kts | 314° |
| 2026-05-07 04:24 | 32.85208 | -111.20900 | 10806 ft | 375 kts | 314° |
| 2026-05-07 04:25 | 32.86923 | -111.23118 | 10672 ft | 354 kts | 315° |
| 2026-05-07 04:25 | 32.88548 | -111.25222 | 10552 ft | 336 kts | 315° |
| 2026-05-07 04:25 | 32.90088 | -111.27223 | 10418 ft | 320 kts | 315° |
| 2026-05-07 04:25 | 32.91565 | -111.29138 | 10253 ft | 309 kts | 315° |
| 2026-05-07 04:26 | 32.93001 | -111.31001 | 9989 ft | 303 kts | 315° |
| 2026-05-07 04:26 | 32.94418 | -111.32841 | 9837 ft | 301 kts | 315° |
| 2026-05-07 04:26 | 32.95835 | -111.34679 | 9708 ft | 301 kts | 315° |
| 2026-05-07 04:26 | 32.97244 | -111.36511 | 9581 ft | 300 kts | 315° |
| 2026-05-07 04:27 | 32.98652 | -111.38349 | 9309 ft | 299 kts | 315° |
| 2026-05-07 04:27 | 33.00048 | -111.40169 | 8993 ft | 295 kts | 315° |
| 2026-05-07 04:27 | 33.01430 | -111.41972 | 8966 ft | 296 kts | 315° |
| 2026-05-07 04:27 | 33.02820 | -111.43783 | 8971 ft | 296 kts | 314° |
| 2026-05-07 04:28 | 33.03980 | -111.45824 | 8968 ft | 300 kts | 296° |
| 2026-05-07 04:28 | 33.04554 | -111.48213 | 8931 ft | 303 kts | 278° |
| 2026-05-07 04:28 | 33.04466 | -111.50675 | 8932 ft | 302 kts | 258° |
| 2026-05-07 04:28 | 33.03971 | -111.53146 | 8964 ft | 304 kts | 256° |
| 2026-05-07 04:29 | 33.03476 | -111.55572 | 8968 ft | 304 kts | 256° |
| 2026-05-07 04:29 | 33.02979 | -111.58018 | 8968 ft | 304 kts | 257° |
| 2026-05-07 04:29 | 33.02481 | -111.60469 | 8968 ft | 304 kts | 257° |
| 2026-05-07 04:29 | 33.01983 | -111.62921 | 8968 ft | 304 kts | 257° |
| 2026-05-07 04:30 | 33.01482 | -111.65373 | 8970 ft | 304 kts | 256° |
| 2026-05-07 04:30 | 33.00981 | -111.67828 | 8971 ft | 305 kts | 257° |
| 2026-05-07 04:30 | 33.00482 | -111.70280 | 8971 ft | 305 kts | 257° |
| 2026-05-07 04:30 | 32.99982 | -111.72738 | 8971 ft | 305 kts | 257° |
| 2026-05-07 04:31 | 32.99484 | -111.75192 | 8968 ft | 305 kts | 257° |
| 2026-05-07 04:31 | 32.98986 | -111.77642 | 8969 ft | 305 kts | 257° |
| 2026-05-07 04:31 | 32.98485 | -111.80091 | 8973 ft | 305 kts | 256° |
| 2026-05-07 04:31 | 32.97979 | -111.82551 | 8970 ft | 307 kts | 256° |
| 2026-05-07 04:32 | 32.97471 | -111.85023 | 8968 ft | 307 kts | 256° |
| 2026-05-07 04:32 | 32.96964 | -111.87493 | 8968 ft | 307 kts | 256° |
| 2026-05-07 04:32 | 32.96456 | -111.89964 | 8968 ft | 307 kts | 256° |
| 2026-05-07 04:32 | 32.95949 | -111.92436 | 8968 ft | 307 kts | 256° |
| 2026-05-07 04:33 | 32.95440 | -111.94914 | 8973 ft | 307 kts | 256° |
| 2026-05-07 04:33 | 32.94930 | -111.97384 | 8973 ft | 307 kts | 256° |
| 2026-05-07 04:33 | 32.94420 | -111.99855 | 8974 ft | 307 kts | 256° |
| 2026-05-07 04:33 | 32.93909 | -112.02329 | 8923 ft | 307 kts | 256° |
| 2026-05-07 04:34 | 32.93401 | -112.04794 | 8573 ft | 307 kts | 256° |
| 2026-05-07 04:34 | 32.92892 | -112.07259 | 8152 ft | 306 kts | 256° |
| 2026-05-07 04:34 | 32.92385 | -112.09690 | 8016 ft | 301 kts | 256° |
| 2026-05-07 04:34 | 32.91881 | -112.12106 | 7853 ft | 300 kts | 256° |
| 2026-05-07 04:35 | 32.91619 | -112.14563 | 7387 ft | 299 kts | 274° |
| 2026-05-07 04:35 | 32.92023 | -112.16922 | 6984 ft | 293 kts | 294° |
| 2026-05-07 04:35 | 32.93051 | -112.19009 | 6587 ft | 287 kts | 313° |
| 2026-05-07 04:35 | 32.94407 | -112.20733 | 6204 ft | 284 kts | 316° |
| 2026-05-07 04:36 | 32.95751 | -112.22423 | 5863 ft | 278 kts | 315° |
| 2026-05-07 04:36 | 32.97047 | -112.24069 | 5551 ft | 273 kts | 314° |
| 2026-05-07 04:36 | 32.98330 | -112.25702 | 5431 ft | 270 kts | 314° |
| 2026-05-07 04:36 | 32.99617 | -112.27339 | 5303 ft | 269 kts | 314° |
| 2026-05-07 04:37 | 33.00893 | -112.28970 | 5176 ft | 269 kts | 314° |
| 2026-05-07 04:37 | 33.02166 | -112.30597 | 5057 ft | 267 kts | 314° |
| 2026-05-07 04:37 | 33.03437 | -112.32212 | 4939 ft | 267 kts | 314° |
| 2026-05-07 04:37 | 33.04705 | -112.33820 | 4990 ft | 267 kts | 314° |
| 2026-05-07 04:38 | 33.05980 | -112.35439 | 4985 ft | 267 kts | 314° |
| 2026-05-07 04:38 | 33.07251 | -112.37057 | 4978 ft | 268 kts | 314° |
| 2026-05-07 04:38 | 33.08522 | -112.38676 | 4980 ft | 268 kts | 313° |
| 2026-05-07 04:38 | 33.09794 | -112.40304 | 4981 ft | 267 kts | 313° |
| 2026-05-07 04:39 | 33.11060 | -112.41927 | 4984 ft | 267 kts | 314° |
| 2026-05-07 04:39 | 33.12342 | -112.43534 | 4988 ft | 267 kts | 317° |
| 2026-05-07 04:39 | 33.13836 | -112.44838 | 4918 ft | 267 kts | 330° |
| 2026-05-07 04:39 | 33.15433 | -112.45949 | 4789 ft | 265 kts | 329° |
| 2026-05-07 04:40 | 33.17017 | -112.47050 | 4673 ft | 263 kts | 329° |
| 2026-05-07 04:40 | 33.18593 | -112.48144 | 4552 ft | 262 kts | 329° |
| 2026-05-07 04:40 | 33.20167 | -112.49238 | 4435 ft | 262 kts | 329° |
| 2026-05-07 04:40 | 33.21742 | -112.50338 | 4316 ft | 262 kts | 329° |
| 2026-05-07 04:41 | 33.23313 | -112.51437 | 4206 ft | 260 kts | 328° |
| 2026-05-07 04:41 | 33.24913 | -112.52320 | 4088 ft | 250 kts | 346° |
| 2026-05-07 04:41 | 33.26601 | -112.52342 | 4010 ft | 239 kts | 10° |
| 2026-05-07 04:41 | 33.28069 | -112.51546 | 3807 ft | 232 kts | 34° |
| 2026-05-07 04:42 | 33.29280 | -112.50352 | 3595 ft | 220 kts | 37° |
| 2026-05-07 04:42 | 33.30411 | -112.49228 | 3445 ft | 202 kts | 37° |
| 2026-05-07 04:42 | 33.31425 | -112.48216 | 3298 ft | 175 kts | 37° |
| 2026-05-07 04:42 | 33.32300 | -112.47345 | 3140 ft | 156 kts | 36° |
| 2026-05-07 04:43 | 33.33116 | -112.46538 | 3014 ft | 149 kts | 36° |
| 2026-05-07 04:43 | 33.33913 | -112.45756 | 2896 ft | 147 kts | 36° |
| 2026-05-07 04:43 | 33.34702 | -112.44987 | 2700 ft | 146 kts | 36° |
| 2026-05-07 04:43 | 33.35480 | -112.44227 | 2507 ft | 140 kts | 37° |
| 2026-05-07 04:44 | 33.36223 | -112.43495 | 2317 ft | 137 kts | 37° |
| 2026-05-07 04:44 | 33.36958 | -112.42772 | 2132 ft | 136 kts | 36° |
| 2026-05-07 04:44 | 33.37684 | -112.42055 | 1958 ft | 135 kts | 38° |
| 2026-05-07 04:44 | 33.38410 | -112.41340 | 1772 ft | 134 kts | 38° |
| 2026-05-07 04:45 | 33.39128 | -112.40630 | 1600 ft | 134 kts | 39° |
| 2026-05-07 04:45 | 33.39843 | -112.39918 | 1446 ft | 134 kts | 40° |
| 2026-05-07 04:45 | 33.40564 | -112.39199 | 1302 ft | 135 kts | 41° |
| 2026-05-07 04:45 | 33.41212 | -112.38560 | 1139 ft | 135 kts | 38° |
| 2026-05-07 04:46 | 33.41949 | -112.37888 | 965 ft | 128 kts | 39° |
| 2026-05-07 04:46 | 33.42559 | -112.37326 | 983 ft | 89 kts | 37° |
| 2026-05-07 04:46 | 33.42819 | -112.37073 | 978 ft | 8 kts | 68° |
| 2026-05-07 04:46 | 33.42786 | -112.36999 | 977 ft | 7 kts | 128° |
| 2026-05-07 04:47 | 33.42774 | -112.36982 | 980 ft | 2 kts | 129° |
| 2026-05-07 04:47 | 33.42767 | -112.36970 | 978 ft | 3 kts | 129° |
| 2026-05-07 04:47 | 33.42742 | -112.36934 | 975 ft | 8 kts | 129° |
| 2026-05-07 04:47 | 33.42696 | -112.36860 | 966 ft | 13 kts | 125° |
| 2026-05-07 04:48 | 33.42666 | -112.36814 | 968 ft | 11 kts | 130° |
| 2026-05-07 04:48 | 33.42608 | -112.36809 | 964 ft | 11 kts | 216° |
| 2026-05-07 04:48 | 33.42552 | -112.36855 | 967 ft | 3 kts | 134° |
| 2026-05-07 04:48 | 33.42550 | -112.36826 | 967 ft | 2 kts | 86° |